sensor_id;sensor_type;location;lat;lon;timestamp;P1;durP1;ratioP1;P2;durP2;ratioP2
17449;SDS011;8842;51.244;7.102;2023-01-30T00:00:00;11.40;;;10.50;;
17449;SDS011;8842;51.244;7.102;2023-01-30T00:05:06;10.03;;;9.43;;
17449;SDS011;8842;51.244;7.102;2023-01-30T00:10:10;12.10;;;11.20;;
17449;SDS011;8842;51.244;7.102;2023-01-30T00:15:22;10.93;;;10.33;;
17449;SDS011;8842;51.244;7.102;2023-01-30T00:20:26;10.73;;;10.13;;
17449;SDS011;8842;51.244;7.102;2023-01-30T00:25:38;11.73;;;10.67;;
17449;SDS011;8842;51.244;7.102;2023-01-30T00:30:42;10.87;;;10.27;;
17449;SDS011;8842;51.244;7.102;2023-01-30T00:35:46;10.20;;;9.70;;
17449;SDS011;8842;51.244;7.102;2023-01-30T00:40:52;12.00;;;10.93;;
17449;SDS011;8842;51.244;7.102;2023-01-30T00:45:56;10.40;;;9.90;;
17449;SDS011;8842;51.244;7.102;2023-01-30T00:51:19;12.87;;;11.00;;
17449;SDS011;8842;51.244;7.102;2023-01-30T00:56:23;12.37;;;11.10;;
17449;SDS011;8842;51.244;7.102;2023-01-30T01:01:27;10.37;;;9.87;;
17449;SDS011;8842;51.244;7.102;2023-01-30T01:06:39;10.43;;;9.83;;
17449;SDS011;8842;51.244;7.102;2023-01-30T01:11:43;10.10;;;9.60;;
17449;SDS011;8842;51.244;7.102;2023-01-30T01:16:48;11.83;;;10.90;;
17449;SDS011;8842;51.244;7.102;2023-01-30T01:21:59;10.57;;;10.07;;
17449;SDS011;8842;51.244;7.102;2023-01-30T01:27:04;11.10;;;10.50;;
17449;SDS011;8842;51.244;7.102;2023-01-30T01:32:15;13.03;;;12.30;;
17449;SDS011;8842;51.244;7.102;2023-01-30T01:37:20;12.63;;;11.83;;
17449;SDS011;8842;51.244;7.102;2023-01-30T01:42:33;12.73;;;11.90;;
17449;SDS011;8842;51.244;7.102;2023-01-30T01:47:42;11.10;;;10.47;;
17449;SDS011;8842;51.244;7.102;2023-01-30T01:52:57;11.50;;;10.80;;
17449;SDS011;8842;51.244;7.102;2023-01-30T02:03:24;12.93;;;11.93;;
17449;SDS011;8842;51.244;7.102;2023-01-30T02:08:40;12.57;;;11.80;;
17449;SDS011;8842;51.244;7.102;2023-01-30T02:13:47;11.10;;;10.50;;
17449;SDS011;8842;51.244;7.102;2023-01-30T02:19:00;13.23;;;12.03;;
17449;SDS011;8842;51.244;7.102;2023-01-30T02:24:15;12.20;;;11.40;;
17449;SDS011;8842;51.244;7.102;2023-01-30T02:35:04;13.43;;;12.30;;
17449;SDS011;8842;51.244;7.102;2023-01-30T02:40:21;11.73;;;10.90;;
17449;SDS011;8842;51.244;7.102;2023-01-30T02:45:29;11.80;;;11.00;;
17449;SDS011;8842;51.244;7.102;2023-01-30T02:50:43;11.00;;;10.40;;
17449;SDS011;8842;51.244;7.102;2023-01-30T02:55:56;11.13;;;10.53;;
17449;SDS011;8842;51.244;7.102;2023-01-30T03:01:14;11.93;;;10.80;;
17449;SDS011;8842;51.244;7.102;2023-01-30T03:06:45;11.63;;;10.93;;
17449;SDS011;8842;51.244;7.102;2023-01-30T03:11:56;10.90;;;10.30;;
17449;SDS011;8842;51.244;7.102;2023-01-30T03:17:09;10.83;;;10.23;;
17449;SDS011;8842;51.244;7.102;2023-01-30T03:22:22;11.60;;;10.90;;
17449;SDS011;8842;51.244;7.102;2023-01-30T03:27:29;10.80;;;10.13;;
17449;SDS011;8842;51.244;7.102;2023-01-30T03:32:41;13.73;;;12.70;;
17449;SDS011;8842;51.244;7.102;2023-01-30T03:37:45;11.00;;;10.40;;
17449;SDS011;8842;51.244;7.102;2023-01-30T03:42:57;11.90;;;10.97;;
17449;SDS011;8842;51.244;7.102;2023-01-30T03:48:01;11.97;;;11.27;;
17449;SDS011;8842;51.244;7.102;2023-01-30T03:53:13;10.80;;;10.20;;
17449;SDS011;8842;51.244;7.102;2023-01-30T03:58:17;11.50;;;10.80;;
17449;SDS011;8842;51.244;7.102;2023-01-30T04:03:28;11.57;;;10.80;;
17449;SDS011;8842;51.244;7.102;2023-01-30T04:13:43;10.73;;;10.23;;
17449;SDS011;8842;51.244;7.102;2023-01-30T04:24:00;11.33;;;10.63;;
17449;SDS011;8842;51.244;7.102;2023-01-30T04:29:08;12.37;;;11.67;;
17449;SDS011;8842;51.244;7.102;2023-01-30T04:34:22;12.47;;;11.77;;
17449;SDS011;8842;51.244;7.102;2023-01-30T04:39:26;11.40;;;10.80;;
17449;SDS011;8842;51.244;7.102;2023-01-30T04:49:47;12.20;;;11.50;;
17449;SDS011;8842;51.244;7.102;2023-01-30T05:00:03;15.27;;;14.40;;
17449;SDS011;8842;51.244;7.102;2023-01-30T05:05:18;16.30;;;15.20;;
17449;SDS011;8842;51.244;7.102;2023-01-30T05:15:35;16.83;;;15.73;;
17449;SDS011;8842;51.244;7.102;2023-01-30T05:20:40;16.83;;;15.83;;
17449;SDS011;8842;51.244;7.102;2023-01-30T05:25:44;16.30;;;15.27;;
17449;SDS011;8842;51.244;7.102;2023-01-30T05:31:00;15.80;;;15.00;;
17449;SDS011;8842;51.244;7.102;2023-01-30T05:36:04;15.67;;;14.70;;
17449;SDS011;8842;51.244;7.102;2023-01-30T05:41:19;16.33;;;15.33;;
17449;SDS011;8842;51.244;7.102;2023-01-30T05:46:23;16.23;;;15.33;;
17449;SDS011;8842;51.244;7.102;2023-01-30T05:51:38;16.40;;;15.50;;
17449;SDS011;8842;51.244;7.102;2023-01-30T05:56:42;16.73;;;15.73;;
17449;SDS011;8842;51.244;7.102;2023-01-30T06:01:54;16.13;;;15.20;;
17449;SDS011;8842;51.244;7.102;2023-01-30T06:06:58;16.20;;;15.23;;
17449;SDS011;8842;51.244;7.102;2023-01-30T06:12:11;16.20;;;15.30;;
17449;SDS011;8842;51.244;7.102;2023-01-30T06:22:26;16.60;;;15.60;;
17449;SDS011;8842;51.244;7.102;2023-01-30T06:27:30;16.40;;;15.50;;
17449;SDS011;8842;51.244;7.102;2023-01-30T06:32:44;17.17;;;16.03;;
17449;SDS011;8842;51.244;7.102;2023-01-30T06:37:52;15.80;;;15.00;;
17449;SDS011;8842;51.244;7.102;2023-01-30T06:43:06;16.30;;;15.33;;
17449;SDS011;8842;51.244;7.102;2023-01-30T06:48:10;16.00;;;15.10;;
17449;SDS011;8842;51.244;7.102;2023-01-30T06:53:24;16.30;;;15.40;;
17449;SDS011;8842;51.244;7.102;2023-01-30T06:58:30;16.60;;;15.60;;
17449;SDS011;8842;51.244;7.102;2023-01-30T07:03:44;15.70;;;14.80;;
17449;SDS011;8842;51.244;7.102;2023-01-30T07:14:01;16.03;;;15.17;;
17449;SDS011;8842;51.244;7.102;2023-01-30T07:19:05;16.47;;;15.57;;
17449;SDS011;8842;51.244;7.102;2023-01-30T07:29:30;15.70;;;14.80;;
17449;SDS011;8842;51.244;7.102;2023-01-30T07:34:34;16.37;;;15.37;;
17449;SDS011;8842;51.244;7.102;2023-01-30T07:39:45;16.27;;;15.37;;
17449;SDS011;8842;51.244;7.102;2023-01-30T07:44:49;16.40;;;15.40;;
17449;SDS011;8842;51.244;7.102;2023-01-30T07:50:01;16.40;;;15.43;;
17449;SDS011;8842;51.244;7.102;2023-01-30T08:00:20;16.23;;;15.33;;
17449;SDS011;8842;51.244;7.102;2023-01-30T08:10:35;15.97;;;15.07;;
17449;SDS011;8842;51.244;7.102;2023-01-30T08:20:51;14.60;;;13.80;;
17449;SDS011;8842;51.244;7.102;2023-01-30T08:25:57;15.30;;;14.50;;
17449;SDS011;8842;51.244;7.102;2023-01-30T08:31:10;14.73;;;13.93;;
17449;SDS011;8842;51.244;7.102;2023-01-30T08:36:22;15.80;;;15.00;;
17449;SDS011;8842;51.244;7.102;2023-01-30T08:41:35;16.23;;;15.33;;
17449;SDS011;8842;51.244;7.102;2023-01-30T08:46:47;15.77;;;14.97;;
17449;SDS011;8842;51.244;7.102;2023-01-30T08:51:51;15.93;;;15.03;;
17449;SDS011;8842;51.244;7.102;2023-01-30T08:57:03;15.57;;;14.67;;
17449;SDS011;8842;51.244;7.102;2023-01-30T09:02:08;14.90;;;14.10;;
17449;SDS011;8842;51.244;7.102;2023-01-30T09:07:20;15.80;;;14.90;;
17449;SDS011;8842;51.244;7.102;2023-01-30T09:12:24;16.07;;;15.17;;
17449;SDS011;8842;51.244;7.102;2023-01-30T09:17:36;15.57;;;14.73;;
17449;SDS011;8842;51.244;7.102;2023-01-30T09:22:40;14.07;;;13.37;;
17449;SDS011;8842;51.244;7.102;2023-01-30T09:27:52;13.83;;;13.13;;
17449;SDS011;8842;51.244;7.102;2023-01-30T09:38:09;14.53;;;13.63;;
17449;SDS011;8842;51.244;7.102;2023-01-30T09:43:27;13.70;;;13.00;;
17449;SDS011;8842;51.244;7.102;2023-01-30T09:53:55;13.50;;;12.80;;
17449;SDS011;8842;51.244;7.102;2023-01-30T10:04:15;12.10;;;11.47;;
17449;SDS011;8842;51.244;7.102;2023-01-30T10:14:42;13.33;;;12.03;;
17449;SDS011;8842;51.244;7.102;2023-01-30T10:19:55;13.00;;;12.30;;
17449;SDS011;8842;51.244;7.102;2023-01-30T10:25:19;12.43;;;11.83;;
17449;SDS011;8842;51.244;7.102;2023-01-30T10:30:36;11.63;;;11.03;;
17449;SDS011;8842;51.244;7.102;2023-01-30T10:35:41;11.77;;;11.17;;
17449;SDS011;8842;51.244;7.102;2023-01-30T10:40:56;12.17;;;11.57;;
17449;SDS011;8842;51.244;7.102;2023-01-30T10:46:12;12.40;;;11.80;;
17449;SDS011;8842;51.244;7.102;2023-01-30T10:56:46;12.30;;;11.60;;
17449;SDS011;8842;51.244;7.102;2023-01-30T11:02:01;12.50;;;11.80;;
17449;SDS011;8842;51.244;7.102;2023-01-30T11:12:19;11.70;;;11.10;;
17449;SDS011;8842;51.244;7.102;2023-01-30T11:17:28;11.50;;;10.90;;
17449;SDS011;8842;51.244;7.102;2023-01-30T11:22:44;11.53;;;10.93;;
17449;SDS011;8842;51.244;7.102;2023-01-30T11:27:53;11.70;;;11.10;;
17449;SDS011;8842;51.244;7.102;2023-01-30T11:33:07;12.00;;;11.40;;
17449;SDS011;8842;51.244;7.102;2023-01-30T11:43:32;12.30;;;11.70;;
17449;SDS011;8842;51.244;7.102;2023-01-30T11:48:40;12.10;;;11.50;;
17449;SDS011;8842;51.244;7.102;2023-01-30T11:53:53;17.90;;;11.20;;
17449;SDS011;8842;51.244;7.102;2023-01-30T11:59:02;12.40;;;11.80;;
17449;SDS011;8842;51.244;7.102;2023-01-30T12:04:14;12.50;;;11.80;;
17449;SDS011;8842;51.244;7.102;2023-01-30T12:14:44;11.13;;;10.53;;
17449;SDS011;8842;51.244;7.102;2023-01-30T12:19:53;10.97;;;10.37;;
17449;SDS011;8842;51.244;7.102;2023-01-30T12:25:09;11.37;;;10.77;;
17449;SDS011;8842;51.244;7.102;2023-01-30T12:30:20;11.90;;;11.30;;
17449;SDS011;8842;51.244;7.102;2023-01-30T12:35:46;11.90;;;11.30;;
17449;SDS011;8842;51.244;7.102;2023-01-30T12:40:57;11.30;;;10.70;;
17449;SDS011;8842;51.244;7.102;2023-01-30T12:46:14;11.23;;;10.63;;
17449;SDS011;8842;51.244;7.102;2023-01-30T12:51:30;10.80;;;10.20;;
17449;SDS011;8842;51.244;7.102;2023-01-30T13:02:27;10.90;;;10.30;;
17449;SDS011;8842;51.244;7.102;2023-01-30T13:07:38;18.70;;;10.80;;
17449;SDS011;8842;51.244;7.102;2023-01-30T13:12:53;11.00;;;10.40;;
17449;SDS011;8842;51.244;7.102;2023-01-30T13:18:02;10.20;;;9.70;;
17449;SDS011;8842;51.244;7.102;2023-01-30T13:23:19;9.60;;;9.10;;
17449;SDS011;8842;51.244;7.102;2023-01-30T13:28:27;9.60;;;9.10;;
17449;SDS011;8842;51.244;7.102;2023-01-30T13:33:42;9.80;;;9.30;;
17449;SDS011;8842;51.244;7.102;2023-01-30T13:38:51;10.10;;;9.60;;
17449;SDS011;8842;51.244;7.102;2023-01-30T13:44:14;10.37;;;9.83;;
17449;SDS011;8842;51.244;7.102;2023-01-30T13:54:36;9.50;;;9.00;;
17449;SDS011;8842;51.244;7.102;2023-01-30T14:00:08;10.00;;;9.50;;
17449;SDS011;8842;51.244;7.102;2023-01-30T14:06:02;9.30;;;8.80;;
17449;SDS011;8842;51.244;7.102;2023-01-30T14:11:34;9.67;;;8.97;;
17449;SDS011;8842;51.244;7.102;2023-01-30T14:16:47;8.73;;;8.33;;
17449;SDS011;8842;51.244;7.102;2023-01-30T14:21:54;9.30;;;8.80;;
17449;SDS011;8842;51.244;7.102;2023-01-30T14:27:22;9.40;;;8.80;;
17449;SDS011;8842;51.244;7.102;2023-01-30T14:32:33;8.93;;;8.53;;
17449;SDS011;8842;51.244;7.102;2023-01-30T14:54:04;8.90;;;8.50;;
17449;SDS011;8842;51.244;7.102;2023-01-30T15:04:31;10.10;;;9.60;;
17449;SDS011;8842;51.244;7.102;2023-01-30T15:09:45;9.73;;;9.23;;
17449;SDS011;8842;51.244;7.102;2023-01-30T15:15:01;9.33;;;8.83;;
17449;SDS011;8842;51.244;7.102;2023-01-30T15:20:19;9.93;;;9.43;;
17449;SDS011;8842;51.244;7.102;2023-01-30T15:30:47;9.90;;;9.30;;
17449;SDS011;8842;51.244;7.102;2023-01-30T15:41:09;8.40;;;8.00;;
17449;SDS011;8842;51.244;7.102;2023-01-30T15:46:15;8.60;;;8.20;;
17449;SDS011;8842;51.244;7.102;2023-01-30T15:51:29;8.90;;;8.50;;
17449;SDS011;8842;51.244;7.102;2023-01-30T15:56:36;9.20;;;8.70;;
17449;SDS011;8842;51.244;7.102;2023-01-30T16:02:00;9.50;;;8.70;;
17449;SDS011;8842;51.244;7.102;2023-01-30T16:07:15;8.90;;;8.50;;
17449;SDS011;8842;51.244;7.102;2023-01-30T16:12:28;8.20;;;7.80;;
17449;SDS011;8842;51.244;7.102;2023-01-30T16:17:33;9.30;;;8.80;;
17449;SDS011;8842;51.244;7.102;2023-01-30T16:22:37;8.70;;;8.30;;
17449;SDS011;8842;51.244;7.102;2023-01-30T16:27:51;9.60;;;9.10;;
17449;SDS011;8842;51.244;7.102;2023-01-30T16:32:56;9.00;;;8.60;;
17449;SDS011;8842;51.244;7.102;2023-01-30T16:38:25;8.93;;;8.53;;
17449;SDS011;8842;51.244;7.102;2023-01-30T16:43:35;8.80;;;8.40;;
17449;SDS011;8842;51.244;7.102;2023-01-30T16:48:47;8.80;;;8.40;;
17449;SDS011;8842;51.244;7.102;2023-01-30T16:59:11;9.20;;;8.70;;
17449;SDS011;8842;51.244;7.102;2023-01-30T17:04:20;9.40;;;8.90;;
17449;SDS011;8842;51.244;7.102;2023-01-30T17:20:35;10.10;;;9.60;;
17449;SDS011;8842;51.244;7.102;2023-01-30T17:25:48;9.70;;;9.20;;
17449;SDS011;8842;51.244;7.102;2023-01-30T17:30:52;9.60;;;9.10;;
17449;SDS011;8842;51.244;7.102;2023-01-30T17:36:10;9.80;;;9.30;;
17449;SDS011;8842;51.244;7.102;2023-01-30T17:41:25;10.47;;;9.77;;
17449;SDS011;8842;51.244;7.102;2023-01-30T17:46:32;9.80;;;9.30;;
17449;SDS011;8842;51.244;7.102;2023-01-30T17:51:45;8.90;;;8.50;;
17449;SDS011;8842;51.244;7.102;2023-01-30T18:02:01;9.00;;;8.60;;
17449;SDS011;8842;51.244;7.102;2023-01-30T18:07:06;8.20;;;7.80;;
17449;SDS011;8842;51.244;7.102;2023-01-30T18:12:14;10.00;;;9.40;;
17449;SDS011;8842;51.244;7.102;2023-01-30T18:17:25;9.60;;;9.10;;
17449;SDS011;8842;51.244;7.102;2023-01-30T18:22:31;9.40;;;8.90;;
17449;SDS011;8842;51.244;7.102;2023-01-30T18:27:43;9.80;;;9.30;;
17449;SDS011;8842;51.244;7.102;2023-01-30T18:32:48;9.80;;;9.30;;
17449;SDS011;8842;51.244;7.102;2023-01-30T18:37:53;9.63;;;9.13;;
17449;SDS011;8842;51.244;7.102;2023-01-30T18:42:57;8.90;;;8.50;;
17449;SDS011;8842;51.244;7.102;2023-01-30T18:48:01;8.70;;;8.30;;
17449;SDS011;8842;51.244;7.102;2023-01-30T18:53:16;9.40;;;8.90;;
17449;SDS011;8842;51.244;7.102;2023-01-30T18:58:19;10.10;;;9.60;;
17449;SDS011;8842;51.244;7.102;2023-01-30T19:03:31;9.50;;;9.00;;
17449;SDS011;8842;51.244;7.102;2023-01-30T19:08:43;9.47;;;8.97;;
17449;SDS011;8842;51.244;7.102;2023-01-30T19:13:49;8.70;;;8.30;;
17449;SDS011;8842;51.244;7.102;2023-01-30T19:19:01;9.20;;;8.70;;
17449;SDS011;8842;51.244;7.102;2023-01-30T19:29:18;8.80;;;8.40;;
17449;SDS011;8842;51.244;7.102;2023-01-30T19:34:30;9.30;;;8.80;;
17449;SDS011;8842;51.244;7.102;2023-01-30T19:39:34;9.50;;;9.00;;
17449;SDS011;8842;51.244;7.102;2023-01-30T19:44:38;9.50;;;9.00;;
17449;SDS011;8842;51.244;7.102;2023-01-30T19:49:42;10.53;;;9.93;;
17449;SDS011;8842;51.244;7.102;2023-01-30T19:54:54;9.73;;;9.23;;
17449;SDS011;8842;51.244;7.102;2023-01-30T20:05:09;9.90;;;9.40;;
17449;SDS011;8842;51.244;7.102;2023-01-30T20:10:14;10.40;;;9.70;;
17449;SDS011;8842;51.244;7.102;2023-01-30T20:15:26;9.70;;;9.20;;
17449;SDS011;8842;51.244;7.102;2023-01-30T20:20:30;9.57;;;9.07;;
17449;SDS011;8842;51.244;7.102;2023-01-30T20:25:35;9.80;;;9.30;;
17449;SDS011;8842;51.244;7.102;2023-01-30T20:30:49;9.90;;;9.40;;
17449;SDS011;8842;51.244;7.102;2023-01-30T20:35:53;9.33;;;8.83;;
17449;SDS011;8842;51.244;7.102;2023-01-30T20:41:05;9.33;;;8.83;;
17449;SDS011;8842;51.244;7.102;2023-01-30T20:46:18;9.90;;;9.40;;
17449;SDS011;8842;51.244;7.102;2023-01-30T20:51:24;10.10;;;9.60;;
17449;SDS011;8842;51.244;7.102;2023-01-30T20:56:36;10.40;;;9.60;;
17449;SDS011;8842;51.244;7.102;2023-01-30T21:01:41;10.30;;;9.80;;
17449;SDS011;8842;51.244;7.102;2023-01-30T21:06:53;9.90;;;9.40;;
17449;SDS011;8842;51.244;7.102;2023-01-30T21:17:09;9.90;;;9.40;;
17449;SDS011;8842;51.244;7.102;2023-01-30T21:22:13;9.87;;;9.37;;
17449;SDS011;8842;51.244;7.102;2023-01-30T21:27:25;9.67;;;9.17;;
17449;SDS011;8842;51.244;7.102;2023-01-30T21:32:30;9.60;;;9.10;;
17449;SDS011;8842;51.244;7.102;2023-01-30T21:37:42;9.90;;;9.40;;
17449;SDS011;8842;51.244;7.102;2023-01-30T21:43:06;10.40;;;9.90;;
17449;SDS011;8842;51.244;7.102;2023-01-30T21:48:21;10.20;;;9.70;;
17449;SDS011;8842;51.244;7.102;2023-01-30T21:53:26;10.00;;;9.50;;
17449;SDS011;8842;51.244;7.102;2023-01-30T21:58:33;10.00;;;9.50;;
17449;SDS011;8842;51.244;7.102;2023-01-30T22:03:45;9.70;;;9.20;;
17449;SDS011;8842;51.244;7.102;2023-01-30T22:08:53;10.10;;;9.60;;
17449;SDS011;8842;51.244;7.102;2023-01-30T22:14:05;10.20;;;9.70;;
17449;SDS011;8842;51.244;7.102;2023-01-30T22:19:09;9.60;;;9.10;;
17449;SDS011;8842;51.244;7.102;2023-01-30T22:24:22;9.80;;;9.30;;
17449;SDS011;8842;51.244;7.102;2023-01-30T22:29:26;10.00;;;9.50;;
17449;SDS011;8842;51.244;7.102;2023-01-30T22:34:38;9.93;;;9.43;;
17449;SDS011;8842;51.244;7.102;2023-01-30T22:39:42;9.70;;;9.20;;
17449;SDS011;8842;51.244;7.102;2023-01-30T22:44:46;10.40;;;9.90;;
17449;SDS011;8842;51.244;7.102;2023-01-30T22:49:58;10.00;;;9.50;;
17449;SDS011;8842;51.244;7.102;2023-01-30T23:00:14;10.20;;;9.70;;
17449;SDS011;8842;51.244;7.102;2023-01-30T23:05:19;10.10;;;9.60;;
17449;SDS011;8842;51.244;7.102;2023-01-30T23:10:38;10.40;;;9.90;;
17449;SDS011;8842;51.244;7.102;2023-01-30T23:15:42;10.17;;;9.67;;
17449;SDS011;8842;51.244;7.102;2023-01-30T23:20:53;11.13;;;10.53;;
17449;SDS011;8842;51.244;7.102;2023-01-30T23:26:00;10.23;;;9.73;;
17449;SDS011;8842;51.244;7.102;2023-01-30T23:31:12;10.30;;;9.80;;
17449;SDS011;8842;51.244;7.102;2023-01-30T23:41:29;10.50;;;10.00;;
17449;SDS011;8842;51.244;7.102;2023-01-30T23:46:35;10.07;;;9.57;;
17449;SDS011;8842;51.244;7.102;2023-01-30T23:51:47;9.70;;;9.20;;
17449;SDS011;8842;51.244;7.102;2023-01-30T23:56:51;9.40;;;8.90;;
